createdAt,value
2018-03-18T00:00:06.073Z,76.50
2018-03-18T00:01:05.961Z,76.50
2018-03-18T00:02:08.290Z,76.60
2018-03-18T00:03:05.757Z,76.60
2018-03-18T00:04:05.779Z,76.60
2018-03-18T00:05:08.893Z,76.60
2018-03-18T00:06:13.714Z,76.40
2018-03-18T00:07:06.131Z,76.60
2018-03-18T00:08:11.301Z,76.60
2018-03-18T00:09:05.712Z,76.50
2018-03-18T00:10:08.707Z,76.70
2018-03-18T00:11:08.693Z,76.70
2018-03-18T00:12:06.107Z,76.60
2018-03-18T00:13:06.496Z,76.70
2018-03-18T00:14:08.507Z,76.50
2018-03-18T00:15:06.013Z,76.50
2018-03-18T00:16:08.220Z,76.40
2018-03-18T00:17:08.527Z,76.60
2018-03-18T00:18:09.157Z,76.40
2018-03-18T00:19:05.794Z,76.60
2018-03-18T00:20:06.540Z,76.70
2018-03-18T00:21:06.312Z,76.90
2018-03-18T00:22:09.838Z,76.70
2018-03-18T00:23:06.053Z,76.50
2018-03-18T00:24:09.258Z,76.60
2018-03-18T00:25:05.877Z,76.70
2018-03-18T00:26:06.391Z,76.40
2018-03-18T00:27:11.143Z,76.40
2018-03-18T00:28:05.499Z,76.00
2018-03-18T00:29:05.608Z,76.00
2018-03-18T00:30:05.782Z,76.20
2018-03-18T00:31:06.726Z,76.00
2018-03-18T00:32:05.991Z,75.90
2018-03-18T00:33:06.220Z,76.00
2018-03-18T00:34:06.366Z,76.20
2018-03-18T00:35:08.607Z,75.70
2018-03-18T00:36:06.272Z,75.70
2018-03-18T00:37:06.284Z,75.90
2018-03-18T00:38:06.269Z,75.90
2018-03-18T00:39:05.742Z,75.90
2018-03-18T00:40:08.498Z,75.80
2018-03-18T00:41:08.465Z,76.10
2018-03-18T00:42:06.146Z,75.90
2018-03-18T00:43:05.808Z,75.70
2018-03-18T00:44:15.547Z,76.00
2018-03-18T00:45:05.909Z,75.90
2018-03-18T00:46:10.634Z,75.90
2018-03-18T00:47:11.154Z,76.00
2018-03-18T00:48:09.927Z,75.80
2018-03-18T00:49:11.501Z,75.80
2018-03-18T00:50:06.175Z,75.80
2018-03-18T00:51:10.791Z,75.80
2018-03-18T00:52:09.591Z,76.00
2018-03-18T00:53:13.658Z,76.00
2018-03-18T00:54:06.374Z,75.80
2018-03-18T00:55:06.160Z,75.90
2018-03-18T00:56:08.318Z,75.50
2018-03-18T00:57:05.749Z,75.60
2018-03-18T00:58:06.605Z,75.60
2018-03-18T00:59:06.054Z,75.70
2018-03-18T01:00:06.306Z,75.70
2018-03-18T01:01:06.024Z,75.50
2018-03-18T01:02:13.488Z,75.50
2018-03-18T01:03:05.923Z,75.40
2018-03-18T01:04:05.868Z,75.40
2018-03-18T01:05:09.491Z,75.50
2018-03-18T01:06:11.106Z,75.50
2018-03-18T01:07:11.327Z,75.60
2018-03-18T01:08:06.159Z,75.50
2018-03-18T01:09:11.548Z,75.50
2018-03-18T01:10:13.247Z,75.60
2018-03-18T01:11:13.272Z,75.70
2018-03-18T01:12:06.192Z,75.70
2018-03-18T01:13:06.222Z,75.60
2018-03-18T01:14:09.231Z,75.50
2018-03-18T01:15:09.037Z,75.60
2018-03-18T01:16:05.552Z,75.60
2018-03-18T01:17:08.064Z,75.70
2018-03-18T01:18:05.694Z,75.70
2018-03-18T01:19:06.578Z,75.50
2018-03-18T01:20:06.293Z,75.40
2018-03-18T01:21:11.197Z,75.20
2018-03-18T01:22:05.591Z,75.20
2018-03-18T01:23:09.222Z,74.90
2018-03-18T01:24:05.916Z,74.90
2018-03-18T01:25:06.030Z,75.10
2018-03-18T01:26:09.037Z,75.10
2018-03-18T01:27:09.725Z,75.00
2018-03-18T01:28:06.453Z,75.00
2018-03-18T01:29:11.512Z,75.00
2018-03-18T01:30:08.507Z,75.00
2018-03-18T01:31:08.430Z,74.80
2018-03-18T01:32:08.509Z,74.70
2018-03-18T01:33:09.359Z,74.70
2018-03-18T01:34:05.999Z,74.70
2018-03-18T01:35:05.479Z,74.70
2018-03-18T01:36:11.170Z,74.10
2018-03-18T01:37:08.532Z,74.10
2018-03-18T01:38:11.124Z,74.20
2018-03-18T01:39:06.218Z,74.10
2018-03-18T01:40:06.307Z,74.40
2018-03-18T01:41:06.416Z,74.20
2018-03-18T01:42:05.992Z,74.20
2018-03-18T01:43:06.470Z,73.90
2018-03-18T01:44:09.569Z,73.70
2018-03-18T01:45:06.577Z,73.70
2018-03-18T01:46:06.362Z,73.80
2018-03-18T01:47:06.031Z,73.90
2018-03-18T01:48:11.387Z,73.60
2018-03-18T01:49:05.756Z,73.50
2018-03-18T01:50:05.804Z,73.50
2018-03-18T01:51:05.549Z,73.50
2018-03-18T01:52:06.211Z,73.30
2018-03-18T01:53:05.961Z,73.20
2018-03-18T01:54:06.538Z,73.30
2018-03-18T01:55:09.740Z,73.50
2018-03-18T01:56:06.426Z,73.50
2018-03-18T01:57:09.578Z,73.40
2018-03-18T01:58:08.921Z,73.30
2018-03-18T01:59:09.781Z,73.40
2018-03-18T02:00:06.307Z,73.40
2018-03-18T02:01:06.084Z,73.20
2018-03-18T02:02:05.981Z,72.90
2018-03-18T02:03:05.890Z,72.90
2018-03-18T02:04:05.841Z,73.00
2018-03-18T02:05:14.118Z,73.20
2018-03-18T02:06:05.695Z,73.20
2018-03-18T02:07:12.033Z,73.10
2018-03-18T02:08:13.147Z,72.90
2018-03-18T02:09:08.124Z,72.80
2018-03-18T02:10:05.710Z,72.80
2018-03-18T02:11:06.346Z,72.80
2018-03-18T02:12:06.428Z,72.70
2018-03-18T02:13:06.250Z,72.50
2018-03-18T02:14:06.050Z,72.20
2018-03-18T02:15:10.895Z,72.20
2018-03-18T02:16:06.641Z,72.10
2018-03-18T02:17:05.890Z,72.10
2018-03-18T02:18:10.896Z,72.20
2018-03-18T02:19:11.016Z,72.00
2018-03-18T02:20:11.139Z,72.00
2018-03-18T02:21:05.592Z,72.20
2018-03-18T02:22:06.761Z,72.00
2018-03-18T02:23:05.740Z,71.70
2018-03-18T02:24:05.835Z,71.70
2018-03-18T02:25:10.921Z,71.90
2018-03-18T02:26:06.335Z,72.00
2018-03-18T02:27:06.077Z,71.80
2018-03-18T02:28:06.071Z,72.00
2018-03-18T02:29:06.297Z,59.30
2018-03-18T02:30:05.957Z,72.20
2018-03-18T02:31:08.120Z,72.00
2018-03-18T02:32:08.169Z,72.10
2018-03-18T02:33:06.287Z,72.10
2018-03-18T02:34:06.354Z,71.90
2018-03-18T02:35:06.132Z,71.60
2018-03-18T02:36:05.666Z,71.50
2018-03-18T02:37:06.437Z,71.50
2018-03-18T02:38:06.615Z,71.50
2018-03-18T02:39:06.511Z,71.60
2018-03-18T02:40:10.974Z,71.80
2018-03-18T02:41:09.338Z,72.00
2018-03-18T02:42:05.959Z,72.00
2018-03-18T02:43:05.827Z,72.00
2018-03-18T02:44:06.687Z,72.00
2018-03-18T02:45:06.098Z,72.00
2018-03-18T02:46:06.546Z,72.00
2018-03-18T02:47:08.642Z,72.00
2018-03-18T02:48:09.633Z,71.80
2018-03-18T02:49:11.125Z,71.80
2018-03-18T02:50:11.297Z,71.50
2018-03-18T02:51:05.982Z,71.50
2018-03-18T02:52:08.548Z,71.10
2018-03-18T02:53:11.072Z,71.10
2018-03-18T02:54:06.272Z,71.10
2018-03-18T02:55:11.093Z,71.30
2018-03-18T02:56:10.508Z,71.30
2018-03-18T02:57:13.532Z,70.90
2018-03-18T02:58:05.925Z,71.00
2018-03-18T02:59:09.610Z,71.10
2018-03-18T03:00:06.246Z,71.10
2018-03-18T03:01:05.779Z,71.20
2018-03-18T03:02:08.897Z,71.50
2018-03-18T03:03:09.629Z,71.60
2018-03-18T03:04:08.563Z,71.80
2018-03-18T03:05:05.965Z,71.80
2018-03-18T03:06:05.602Z,72.00
2018-03-18T03:07:06.271Z,71.80
2018-03-18T03:08:06.414Z,71.40
2018-03-18T03:09:08.596Z,71.10
2018-03-18T03:10:06.414Z,71.10
2018-03-18T03:11:08.383Z,70.90
2018-03-18T03:12:10.924Z,70.80
2018-03-18T03:13:09.527Z,70.90
2018-03-18T03:14:09.609Z,70.90
2018-03-18T03:15:06.348Z,70.80
2018-03-18T03:16:06.360Z,70.50
2018-03-18T03:17:08.457Z,70.30
2018-03-18T03:18:06.024Z,70.30
2018-03-18T03:19:08.447Z,70.10
2018-03-18T03:20:16.153Z,69.80
2018-03-18T03:21:08.588Z,69.90
2018-03-18T03:22:06.079Z,69.90
2018-03-18T03:23:05.876Z,66.70
2018-03-18T03:24:08.966Z,69.60
2018-03-18T03:25:06.536Z,69.60
2018-03-18T03:26:06.141Z,69.80
2018-03-18T03:27:08.506Z,69.80
2018-03-18T03:28:06.084Z,69.80
2018-03-18T03:29:05.711Z,70.00
2018-03-18T03:30:08.927Z,69.50
2018-03-18T03:31:06.533Z,69.40
2018-03-18T03:32:05.939Z,69.30
2018-03-18T03:33:08.416Z,69.30
2018-03-18T03:34:06.426Z,69.30
2018-03-18T03:35:08.981Z,69.10
2018-03-18T03:36:11.490Z,69.10
2018-03-18T03:37:05.632Z,69.10
2018-03-18T03:38:05.771Z,68.90
2018-03-18T03:39:05.956Z,68.60
2018-03-18T03:40:06.109Z,68.60
2018-03-18T03:41:05.707Z,68.80
2018-03-18T03:42:05.666Z,68.50
2018-03-18T03:43:05.831Z,68.40
2018-03-18T03:44:06.796Z,68.30
2018-03-18T03:45:10.860Z,68.30
2018-03-18T03:46:05.729Z,68.10
2018-03-18T03:47:06.488Z,68.10
2018-03-18T03:48:11.326Z,68.10
2018-03-18T03:49:05.474Z,68.20
2018-03-18T03:50:06.128Z,68.00
2018-03-18T03:51:05.868Z,68.30
2018-03-18T03:52:05.867Z,68.40
2018-03-18T03:53:05.837Z,68.20
2018-03-18T03:54:06.304Z,68.30
2018-03-18T03:55:11.376Z,68.70
2018-03-18T03:56:06.638Z,68.90
2018-03-18T03:57:06.192Z,68.90
2018-03-18T03:58:10.905Z,69.10
2018-03-18T03:59:05.512Z,69.20
2018-03-18T04:00:08.287Z,69.30
2018-03-18T04:01:05.821Z,69.30
2018-03-18T04:02:13.429Z,69.50
2018-03-18T04:03:05.859Z,69.50
2018-03-18T04:04:11.424Z,69.30
2018-03-18T04:05:05.540Z,69.10
2018-03-18T04:06:09.090Z,69.10
2018-03-18T04:07:05.861Z,69.10
2018-03-18T04:08:11.337Z,69.10
2018-03-18T04:09:05.599Z,68.90
2018-03-18T04:10:05.558Z,68.90
2018-03-18T04:11:06.179Z,68.40
2018-03-18T04:12:09.007Z,68.60
2018-03-18T04:13:06.207Z,68.60
2018-03-18T04:14:11.308Z,68.50
2018-03-18T04:15:05.790Z,68.10
2018-03-18T04:16:09.194Z,67.60
2018-03-18T04:17:08.409Z,67.60
2018-03-18T04:18:10.931Z,67.60
2018-03-18T04:19:09.052Z,67.70
2018-03-18T04:20:05.444Z,67.70
2018-03-18T04:21:09.265Z,68.10
2018-03-18T04:22:08.954Z,67.90
2018-03-18T04:23:06.597Z,67.90
2018-03-18T04:24:05.581Z,67.90
2018-03-18T04:25:10.956Z,67.90
2018-03-18T04:26:08.929Z,67.90
2018-03-18T04:27:06.287Z,67.90
2018-03-18T04:28:06.659Z,68.10
2018-03-18T04:29:11.156Z,68.40
2018-03-18T04:30:09.812Z,68.60
2018-03-18T04:31:06.159Z,68.60
2018-03-18T04:32:06.123Z,68.80
2018-03-18T04:33:08.411Z,68.60
2018-03-18T04:34:08.494Z,68.70
2018-03-18T04:35:09.123Z,68.50
2018-03-18T04:36:10.624Z,68.60
2018-03-18T04:37:10.740Z,68.60
2018-03-18T04:38:09.405Z,68.20
2018-03-18T04:39:05.931Z,68.10
2018-03-18T04:40:11.146Z,68.30
2018-03-18T04:41:05.792Z,68.40
2018-03-18T04:42:06.468Z,68.20
2018-03-18T04:43:05.808Z,68.00
2018-03-18T04:44:08.056Z,68.00
2018-03-18T04:45:05.873Z,67.90
2018-03-18T04:46:08.350Z,68.00
2018-03-18T04:47:07.473Z,68.10
2018-03-18T04:48:09.465Z,67.80
2018-03-18T04:49:10.855Z,67.70
2018-03-18T04:50:11.057Z,67.70
2018-03-18T04:51:10.590Z,67.70
2018-03-18T04:52:06.223Z,67.70
2018-03-18T04:53:14.600Z,67.10
2018-03-18T04:54:06.356Z,67.10
2018-03-18T04:55:06.206Z,67.00
2018-03-18T04:56:05.826Z,66.80
2018-03-18T04:57:08.371Z,66.80
2018-03-18T04:58:05.914Z,66.80
2018-03-18T04:59:08.178Z,67.00
2018-03-18T05:00:06.148Z,67.00
2018-03-18T05:01:08.173Z,66.90
2018-03-18T05:02:05.575Z,66.80
2018-03-18T05:03:11.124Z,66.80
2018-03-18T05:04:10.559Z,66.70
2018-03-18T05:05:06.121Z,66.60
2018-03-18T05:06:06.003Z,66.50
2018-03-18T05:07:06.263Z,66.40
2018-03-18T05:08:11.301Z,66.70
2018-03-18T05:09:11.417Z,66.70
2018-03-18T05:10:08.353Z,66.30
2018-03-18T05:11:10.753Z,66.30
2018-03-18T05:12:06.132Z,66.10
2018-03-18T05:13:05.512Z,66.20
2018-03-18T05:14:06.365Z,66.40
2018-03-18T05:15:11.126Z,66.40
2018-03-18T05:16:06.607Z,66.30
2018-03-18T05:17:10.697Z,66.30
2018-03-18T05:18:08.332Z,66.20
2018-03-18T05:19:14.982Z,66.10
2018-03-18T05:20:06.388Z,66.00
2018-03-18T05:21:10.998Z,66.00
2018-03-18T05:22:06.353Z,66.00
2018-03-18T05:23:06.106Z,66.00
2018-03-18T05:24:06.439Z,65.70
2018-03-18T05:25:10.877Z,65.70
2018-03-18T05:26:10.856Z,65.50
2018-03-18T05:27:06.421Z,65.50
2018-03-18T05:28:11.289Z,65.80
2018-03-18T05:29:06.501Z,66.20
2018-03-18T05:30:06.231Z,66.40
2018-03-18T05:31:10.744Z,66.50
2018-03-18T05:32:06.640Z,66.00
2018-03-18T05:33:06.232Z,65.70
2018-03-18T05:34:08.990Z,65.50
2018-03-18T05:35:06.361Z,65.50
2018-03-18T05:36:05.498Z,65.70
2018-03-18T05:37:11.627Z,65.70
2018-03-18T05:38:09.323Z,65.70
2018-03-18T05:39:06.100Z,65.70
2018-03-18T05:40:09.790Z,65.80
2018-03-18T05:41:09.153Z,65.70
2018-03-18T05:42:05.684Z,65.70
2018-03-18T05:43:08.553Z,65.80
2018-03-18T05:44:06.274Z,65.80
2018-03-18T05:45:06.425Z,65.80
2018-03-18T05:46:06.053Z,66.00
2018-03-18T05:47:09.211Z,66.40
2018-03-18T05:48:05.969Z,66.30
2018-03-18T05:49:06.183Z,66.30
2018-03-18T05:50:05.638Z,66.20
2018-03-18T05:51:11.777Z,65.90
2018-03-18T05:52:08.852Z,65.80
2018-03-18T05:53:06.251Z,65.80
2018-03-18T05:54:06.164Z,65.90
2018-03-18T05:55:05.984Z,66.10
2018-03-18T05:56:06.364Z,66.10
2018-03-18T05:57:08.294Z,65.80
2018-03-18T05:58:10.747Z,65.80
2018-03-18T05:59:06.431Z,66.00
2018-03-18T06:00:08.561Z,66.20
2018-03-18T06:01:06.182Z,66.20
2018-03-18T06:02:06.011Z,66.30
2018-03-18T06:03:06.012Z,66.40
2018-03-18T06:04:06.711Z,66.50
2018-03-18T06:05:06.538Z,66.40
2018-03-18T06:06:06.602Z,66.30
2018-03-18T06:07:06.278Z,66.20
2018-03-18T06:08:05.900Z,66.10
2018-03-18T06:09:05.500Z,65.60
2018-03-18T06:10:08.825Z,65.40
2018-03-18T06:11:06.408Z,65.30
2018-03-18T06:12:06.618Z,65.30
2018-03-18T06:13:06.643Z,65.60
2018-03-18T06:14:05.920Z,65.60
2018-03-18T06:15:05.555Z,65.60
2018-03-18T06:16:10.592Z,65.40
2018-03-18T06:17:06.297Z,65.50
2018-03-18T06:18:05.898Z,65.50
2018-03-18T06:19:05.941Z,65.50
2018-03-18T06:20:09.549Z,65.10
2018-03-18T06:21:06.053Z,65.10
2018-03-18T06:22:06.370Z,65.10
2018-03-18T06:23:06.209Z,64.90
2018-03-18T06:24:06.521Z,64.70
2018-03-18T06:25:06.450Z,64.40
2018-03-18T06:26:06.173Z,64.30
2018-03-18T06:27:06.202Z,64.30
2018-03-18T06:28:06.373Z,64.10
2018-03-18T06:29:12.199Z,64.20
2018-03-18T06:30:05.692Z,64.20
2018-03-18T06:31:05.874Z,64.40
2018-03-18T06:32:09.590Z,64.90
2018-03-18T06:33:06.018Z,64.90
2018-03-18T06:34:06.385Z,64.80
2018-03-18T06:35:11.186Z,64.40
2018-03-18T06:36:12.574Z,63.90
2018-03-18T06:37:06.160Z,63.80
2018-03-18T06:38:06.774Z,63.50
2018-03-18T06:39:08.113Z,63.70
2018-03-18T06:40:06.293Z,63.70
2018-03-18T06:41:05.980Z,63.80
2018-03-18T06:42:05.463Z,63.70
2018-03-18T06:43:06.075Z,63.50
2018-03-18T06:44:09.379Z,62.90
2018-03-18T06:45:05.861Z,62.90
2018-03-18T06:46:06.186Z,62.80
2018-03-18T06:47:05.969Z,62.90
2018-03-18T06:48:06.309Z,62.90
2018-03-18T06:49:10.909Z,63.40
2018-03-18T06:50:06.282Z,63.40
2018-03-18T06:51:10.928Z,63.40
2018-03-18T06:52:09.533Z,63.10
2018-03-18T06:53:06.068Z,63.20
2018-03-18T06:54:06.018Z,63.20
2018-03-18T06:55:06.346Z,63.10
2018-03-18T06:56:05.938Z,62.20
2018-03-18T06:57:10.633Z,61.50
2018-03-18T06:58:11.245Z,60.70
2018-03-18T06:59:06.221Z,60.80
2018-03-18T07:00:05.744Z,60.80
2018-03-18T07:01:06.301Z,60.60
2018-03-18T07:02:08.001Z,60.60
2018-03-18T07:03:05.645Z,60.70
2018-03-18T07:04:05.789Z,60.70
2018-03-18T07:05:13.280Z,60.50
2018-03-18T07:06:10.038Z,60.70
2018-03-18T07:07:10.942Z,60.50
2018-03-18T07:08:06.333Z,60.50
2018-03-18T07:09:11.351Z,60.50
2018-03-18T07:10:08.309Z,60.70
2018-03-18T07:11:05.762Z,60.70
2018-03-18T07:12:06.090Z,61.20
2018-03-18T07:13:13.528Z,60.80
2018-03-18T07:14:06.265Z,60.70
2018-03-18T07:15:06.260Z,60.40
2018-03-18T07:16:08.543Z,60.60
2018-03-18T07:17:06.080Z,60.40
2018-03-18T07:18:10.879Z,60.20
2018-03-18T07:19:08.675Z,59.30
2018-03-18T07:20:11.190Z,59.30
2018-03-18T07:21:06.709Z,59.30
2018-03-18T07:22:05.687Z,59.20
2018-03-18T07:23:09.080Z,59.10
2018-03-18T07:24:08.933Z,59.20
2018-03-18T07:25:08.928Z,58.90
2018-03-18T07:26:06.285Z,58.90
2018-03-18T07:27:08.231Z,58.30
2018-03-18T07:28:10.694Z,58.10
2018-03-18T07:29:08.439Z,58.20
2018-03-18T07:30:05.833Z,58.20
2018-03-18T07:31:06.600Z,58.30
2018-03-18T07:32:08.894Z,58.40
2018-03-18T07:33:08.920Z,58.30
2018-03-18T07:34:08.507Z,58.00
2018-03-18T07:35:09.770Z,58.00
2018-03-18T07:36:11.263Z,57.80
2018-03-18T07:37:09.692Z,57.90
2018-03-18T07:38:13.734Z,57.70
2018-03-18T07:39:06.277Z,57.70
2018-03-18T07:40:06.116Z,57.70
2018-03-18T07:41:11.213Z,58.10
2018-03-18T07:42:05.791Z,58.10
2018-03-18T07:43:06.066Z,58.40
2018-03-18T07:44:05.833Z,58.40
2018-03-18T07:45:05.686Z,58.40
2018-03-18T07:46:05.898Z,58.00
2018-03-18T07:47:12.619Z,57.30
2018-03-18T07:48:11.891Z,56.50
2018-03-18T07:49:06.642Z,56.50
2018-03-18T07:50:16.371Z,56.60
2018-03-18T07:51:09.543Z,56.40
2018-03-18T07:52:05.961Z,56.40
2018-03-18T07:53:05.444Z,56.20
2018-03-18T07:54:08.222Z,56.00
2018-03-18T07:55:11.367Z,55.90
2018-03-18T07:56:06.208Z,56.00
2018-03-18T07:57:08.973Z,55.90
2018-03-18T07:58:11.472Z,55.90
2018-03-18T07:59:05.627Z,55.70
2018-03-18T08:00:11.294Z,55.10
2018-03-18T08:01:05.911Z,55.10
2018-03-18T08:02:06.495Z,55.20
2018-03-18T08:03:10.573Z,55.00
2018-03-18T08:04:08.553Z,54.60
2018-03-18T08:05:10.433Z,54.50
2018-03-18T08:06:05.724Z,54.50
2018-03-18T08:07:06.208Z,54.50
2018-03-18T08:08:09.546Z,54.10
2018-03-18T08:09:06.240Z,54.10
2018-03-18T08:10:10.796Z,54.80
2018-03-18T08:11:13.893Z,55.00
2018-03-18T08:12:10.692Z,55.20
2018-03-18T08:13:09.698Z,55.30
2018-03-18T08:14:11.353Z,55.40
2018-03-18T08:15:10.892Z,55.80
2018-03-18T08:16:06.171Z,55.90
2018-03-18T08:17:07.090Z,56.00
2018-03-18T08:18:06.054Z,55.30
2018-03-18T08:19:06.692Z,54.40
2018-03-18T08:20:08.744Z,54.20
2018-03-18T08:21:06.254Z,54.20
2018-03-18T08:22:05.720Z,53.50
2018-03-18T08:23:10.570Z,53.30
2018-03-18T08:24:05.915Z,53.30
2018-03-18T08:25:05.938Z,53.30
2018-03-18T08:26:08.912Z,54.10
2018-03-18T08:27:11.410Z,54.20
2018-03-18T08:28:05.513Z,54.20
2018-03-18T08:29:06.084Z,54.20
2018-03-18T08:30:08.144Z,54.00
2018-03-18T08:31:05.567Z,53.90
2018-03-18T08:32:06.188Z,53.60
2018-03-18T08:33:06.037Z,53.10
2018-03-18T08:34:05.567Z,53.30
2018-03-18T08:35:05.585Z,53.40
2018-03-18T08:36:08.784Z,53.10
2018-03-18T08:37:06.123Z,53.20
2018-03-18T08:38:08.630Z,53.40
2018-03-18T08:39:10.961Z,53.40
2018-03-18T08:40:09.002Z,53.30
2018-03-18T08:41:09.825Z,53.10
2018-03-18T08:42:06.380Z,53.10
2018-03-18T08:43:13.634Z,53.50
2018-03-18T08:44:06.400Z,53.40
2018-03-18T08:45:08.804Z,53.70
2018-03-18T08:46:09.226Z,54.20
2018-03-18T08:47:14.080Z,54.50
2018-03-18T08:48:05.515Z,54.50
2018-03-18T08:49:06.233Z,54.70
2018-03-18T08:50:06.032Z,54.60
2018-03-18T08:51:08.030Z,54.00
2018-03-18T08:52:06.423Z,53.90
2018-03-18T08:53:06.079Z,54.00
2018-03-18T08:54:06.466Z,53.60
2018-03-18T08:55:06.162Z,53.30
2018-03-18T08:56:05.720Z,53.30
2018-03-18T08:57:09.799Z,52.60
2018-03-18T08:58:06.275Z,52.60
2018-03-18T08:59:06.378Z,52.70
2018-03-18T09:00:11.075Z,52.90
2018-03-18T09:01:05.590Z,52.90
2018-03-18T09:02:09.864Z,53.40
2018-03-18T09:03:11.402Z,53.30
2018-03-18T09:04:05.830Z,53.20
2018-03-18T09:05:05.938Z,52.80
2018-03-18T09:06:10.646Z,52.60
2018-03-18T09:07:06.211Z,52.60
2018-03-18T09:08:10.967Z,52.40
2018-03-18T09:09:06.532Z,52.40
2018-03-18T09:10:05.632Z,52.40
2018-03-18T09:11:06.251Z,52.30
2018-03-18T09:12:11.059Z,52.30
2018-03-18T09:13:06.151Z,52.30
2018-03-18T09:14:05.782Z,52.70
2018-03-18T09:15:08.965Z,53.10
2018-03-18T09:16:11.417Z,53.00
2018-03-18T09:17:05.720Z,52.90
2018-03-18T09:18:11.400Z,52.80
2018-03-18T09:19:11.417Z,52.90
2018-03-18T09:20:06.079Z,52.90
2018-03-18T09:21:05.688Z,52.60
2018-03-18T09:22:08.907Z,52.70
2018-03-18T09:23:11.448Z,52.90
2018-03-18T09:24:05.845Z,52.90
2018-03-18T09:25:06.064Z,52.50
2018-03-18T09:26:08.989Z,52.10
2018-03-18T09:27:06.462Z,52.10
2018-03-18T09:28:08.470Z,51.50
2018-03-18T09:29:09.254Z,51.50
2018-03-18T09:30:08.199Z,51.20
2018-03-18T09:31:05.878Z,51.20
2018-03-18T09:32:05.828Z,51.30
2018-03-18T09:33:08.121Z,51.80
2018-03-18T09:34:06.374Z,51.80
2018-03-18T09:35:06.930Z,52.00
2018-03-18T09:36:06.590Z,51.90
2018-03-18T09:37:05.952Z,51.40
2018-03-18T09:38:05.824Z,50.90
2018-03-18T09:39:08.820Z,50.30
2018-03-18T09:40:06.241Z,50.20
2018-03-18T09:41:05.868Z,50.40
2018-03-18T09:42:06.481Z,50.40
2018-03-18T09:43:11.347Z,50.90
2018-03-18T09:44:09.190Z,50.70
2018-03-18T09:45:08.264Z,50.30
2018-03-18T09:46:06.227Z,50.20
2018-03-18T09:47:09.011Z,49.80
2018-03-18T09:48:11.357Z,49.80
2018-03-18T09:49:06.048Z,49.70
2018-03-18T09:50:08.442Z,50.10
2018-03-18T09:51:17.033Z,50.30
2018-03-18T09:52:06.503Z,50.30
2018-03-18T09:53:09.397Z,51.10
2018-03-18T09:54:08.407Z,51.40
2018-03-18T09:55:09.119Z,51.70
2018-03-18T09:56:05.686Z,51.70
2018-03-18T09:57:05.972Z,51.50
2018-03-18T09:58:09.737Z,51.40
2018-03-18T09:59:11.114Z,50.50
2018-03-18T10:00:06.510Z,50.40
2018-03-18T10:01:11.366Z,49.70
2018-03-18T10:02:05.809Z,49.40
2018-03-18T10:03:05.837Z,49.50
2018-03-18T10:04:05.627Z,49.40
2018-03-18T10:05:06.697Z,49.10
2018-03-18T10:06:06.128Z,49.00
2018-03-18T10:07:06.285Z,48.90
2018-03-18T10:08:11.394Z,48.10
2018-03-18T10:09:06.629Z,48.50
2018-03-18T10:10:08.228Z,49.10
2018-03-18T10:11:05.932Z,49.10
2018-03-18T10:12:05.809Z,49.30
2018-03-18T10:13:08.818Z,49.00
2018-03-18T10:14:11.307Z,48.20
2018-03-18T10:15:05.637Z,48.30
2018-03-18T10:16:11.362Z,48.40
2018-03-18T10:17:06.049Z,48.60
2018-03-18T10:18:09.314Z,48.60
2018-03-18T10:19:06.173Z,48.70
2018-03-18T10:20:06.438Z,49.00
2018-03-18T10:21:06.186Z,49.00
2018-03-18T10:22:09.301Z,47.90
2018-03-18T10:23:05.850Z,47.90
2018-03-18T10:24:10.134Z,48.50
2018-03-18T10:25:06.128Z,48.50
2018-03-18T10:26:05.461Z,48.20
2018-03-18T10:27:08.579Z,48.00
2018-03-18T10:28:11.115Z,48.20
2018-03-18T10:29:06.365Z,48.20
2018-03-18T10:30:08.626Z,48.40
2018-03-18T10:31:06.058Z,48.40
2018-03-18T10:32:06.843Z,48.80
2018-03-18T10:33:06.038Z,49.40
2018-03-18T10:34:08.584Z,49.80
2018-03-18T10:35:06.340Z,49.80
2018-03-18T10:36:09.173Z,49.10
2018-03-18T10:37:05.926Z,49.10
2018-03-18T10:38:06.191Z,48.90
2018-03-18T10:39:05.897Z,48.50
2018-03-18T10:40:08.875Z,47.90
2018-03-18T10:41:09.677Z,47.90
2018-03-18T10:42:06.403Z,47.90
2018-03-18T10:43:05.844Z,48.40
2018-03-18T10:44:06.461Z,48.70
2018-03-18T10:45:06.159Z,48.40
2018-03-18T10:46:06.408Z,48.60
2018-03-18T10:47:10.464Z,48.90
2018-03-18T10:48:08.341Z,48.30
2018-03-18T10:49:05.788Z,48.30
2018-03-18T10:50:08.570Z,48.20
2018-03-18T10:51:06.173Z,48.20
2018-03-18T10:52:08.435Z,47.80
2018-03-18T10:53:05.904Z,47.80
2018-03-18T10:54:11.481Z,48.00
2018-03-18T10:55:05.801Z,47.90
2018-03-18T10:56:06.222Z,47.20
2018-03-18T10:57:06.120Z,47.10
2018-03-18T10:58:11.105Z,47.30
2018-03-18T10:59:05.609Z,47.50
2018-03-18T11:00:06.587Z,47.70
2018-03-18T11:01:11.117Z,47.60
2018-03-18T11:02:05.931Z,47.60
2018-03-18T11:03:08.777Z,47.50
2018-03-18T11:04:09.531Z,47.40
2018-03-18T11:05:06.048Z,47.40
2018-03-18T11:06:08.701Z,47.60
2018-03-18T11:07:06.628Z,47.50
2018-03-18T11:08:11.183Z,47.50
2018-03-18T11:09:09.055Z,47.80
2018-03-18T11:10:12.005Z,48.00
2018-03-18T11:11:06.387Z,48.00
2018-03-18T11:12:11.205Z,47.50
2018-03-18T11:13:05.642Z,47.60
2018-03-18T11:14:11.642Z,47.80
2018-03-18T11:15:08.796Z,47.80
2018-03-18T11:16:09.853Z,47.60
2018-03-18T11:17:06.056Z,47.70
2018-03-18T11:18:11.272Z,48.10
2018-03-18T11:19:11.417Z,48.20
2018-03-18T11:20:10.695Z,47.80
2018-03-18T11:21:06.458Z,47.40
2018-03-18T11:22:06.363Z,47.00
2018-03-18T11:23:05.730Z,47.10
2018-03-18T11:24:08.272Z,47.90
2018-03-18T11:25:05.652Z,47.90
2018-03-18T11:26:08.868Z,47.90
2018-03-18T11:27:05.836Z,47.90
2018-03-18T11:28:10.682Z,48.00
2018-03-18T11:29:06.159Z,48.10
2018-03-18T11:30:05.855Z,48.20
2018-03-18T11:31:05.598Z,48.30
2018-03-18T11:32:06.513Z,48.00
2018-03-18T11:33:11.119Z,48.00
2018-03-18T11:34:05.828Z,48.00
2018-03-18T11:35:10.824Z,48.40
2018-03-18T11:36:08.650Z,48.40
2018-03-18T11:37:09.600Z,47.90
2018-03-18T11:38:06.152Z,47.80
2018-03-18T11:39:05.663Z,47.90
2018-03-18T11:40:06.422Z,48.10
2018-03-18T11:41:08.965Z,48.50
2018-03-18T11:42:08.963Z,48.70
2018-03-18T11:43:06.501Z,48.70
2018-03-18T11:44:11.258Z,48.80
2018-03-18T11:45:13.256Z,47.90
2018-03-18T11:46:05.687Z,47.90
2018-03-18T11:47:11.312Z,48.00
2018-03-18T11:48:08.857Z,47.70
2018-03-18T11:49:06.276Z,47.80
2018-03-18T11:50:06.436Z,47.70
2018-03-18T11:51:06.184Z,47.70
2018-03-18T11:52:10.948Z,47.90
2018-03-18T11:53:06.367Z,47.80
2018-03-18T11:54:06.842Z,48.00
2018-03-18T11:55:12.619Z,48.10
2018-03-18T11:56:11.101Z,48.10
2018-03-18T11:57:06.472Z,48.10
2018-03-18T11:58:11.290Z,48.60
2018-03-18T11:59:09.980Z,48.60
2018-03-18T12:00:08.826Z,48.00
2018-03-18T12:01:16.386Z,48.10
2018-03-18T12:02:05.899Z,48.10
2018-03-18T12:03:10.790Z,47.80
2018-03-18T12:04:06.743Z,47.80
2018-03-18T12:05:09.608Z,47.20
2018-03-18T12:06:05.998Z,47.20
2018-03-18T12:07:05.625Z,47.10
2018-03-18T12:08:08.435Z,46.80
2018-03-18T12:09:06.257Z,46.80
2018-03-18T12:10:06.442Z,47.20
2018-03-18T12:11:06.108Z,48.00
2018-03-18T12:12:05.768Z,47.80
2018-03-18T12:13:10.094Z,47.80
2018-03-18T12:14:08.769Z,47.60
2018-03-18T12:15:06.119Z,47.60
2018-03-18T12:16:11.157Z,47.30
2018-03-18T12:17:05.462Z,47.40
2018-03-18T12:18:06.465Z,47.90
2018-03-18T12:19:06.152Z,48.00
2018-03-18T12:20:05.975Z,48.00
2018-03-18T12:21:10.537Z,46.60
2018-03-18T12:22:09.027Z,46.00
2018-03-18T12:23:05.538Z,46.00
2018-03-18T12:24:09.189Z,46.50
2018-03-18T12:25:05.625Z,46.50
2018-03-18T12:26:10.713Z,47.00
2018-03-18T12:27:05.912Z,46.80
2018-03-18T12:28:06.289Z,46.90
2018-03-18T12:29:05.671Z,46.60
2018-03-18T12:30:05.553Z,46.80
2018-03-18T12:31:11.125Z,47.00
2018-03-18T12:32:06.248Z,47.00
2018-03-18T12:33:09.425Z,47.50
2018-03-18T12:34:05.864Z,47.60
2018-03-18T12:35:05.656Z,47.30
2018-03-18T12:36:09.339Z,47.50
2018-03-18T12:37:06.150Z,47.50
2018-03-18T12:38:05.725Z,47.40
2018-03-18T12:39:06.576Z,47.90
2018-03-18T12:40:05.753Z,48.00
2018-03-18T12:41:06.237Z,47.70
2018-03-18T12:42:05.990Z,47.70
2018-03-18T12:43:05.654Z,47.20
2018-03-18T12:44:05.675Z,46.80
2018-03-18T12:45:05.757Z,46.80
2018-03-18T12:46:10.789Z,46.70
2018-03-18T12:47:11.479Z,47.10
2018-03-18T12:48:11.192Z,47.20
2018-03-18T12:49:11.323Z,46.50
2018-03-18T12:50:05.539Z,46.80
2018-03-18T12:51:05.600Z,46.50
2018-03-18T12:52:06.018Z,46.10